Time;durP1;ratioP1;P1;durP2;ratioP2;P2;SDS_P1;SDS_P2;PMS_P1;PMS_P2;Temp;Humidity;BMP_temperature;BMP_pressure;BME280_temperature;BME280_humidity;BME280_pressure;Samples;Min_cycle;Max_cycle;Signal;HPM_P1;HPM_P2
2022/12/08 00:02:06;;;;;;;10.23;7.85;;;4.40;99.90;;;;;;1882541;75;21135;-84
2022/12/08 00:11:18;;;;;;;11.22;7.53;;;4.40;99.90;;;;;;1888882;75;21056;-85
2022/12/08 00:14:10;;;;;;;9.13;7.17;;;4.40;99.90;;;;;;1886857;75;21185;-86
2022/12/08 00:17:02;;;;;;;9.70;6.40;;;4.50;99.90;;;;;;1884360;75;21527;-84
2022/12/08 00:19:54;;;;;;;9.88;6.90;;;4.50;99.90;;;;;;1881101;75;21578;-84
2022/12/08 00:22:46;;;;;;;9.10;6.85;;;4.40;99.90;;;;;;1872413;75;21202;-84
2022/12/08 00:25:40;;;;;;;9.88;7.03;;;4.30;99.90;;;;;;1893369;75;21123;-84
2022/12/08 00:28:32;;;;;;;10.48;6.75;;;4.40;99.90;;;;;;1889606;75;21094;-85
2022/12/08 00:31:23;;;;;;;9.85;7.03;;;4.40;99.90;;;;;;1900035;75;21055;-86
2022/12/08 00:36:54;;;;;;;9.25;7.47;;;4.30;99.90;;;;;;1927528;72;22144;-86
2022/12/08 00:39:47;;;;;;;9.90;6.85;;;4.30;99.90;;;;;;1907270;74;21140;-85
2022/12/08 00:42:39;;;;;;;9.45;6.83;;;4.30;99.90;;;;;;1904745;75;21139;-86
2022/12/08 00:45:31;;;;;;;9.20;6.72;;;4.30;99.90;;;;;;1905493;74;21168;-85
2022/12/08 00:48:23;;;;;;;8.48;6.15;;;4.30;99.90;;;;;;1890489;75;21050;-85
2022/12/08 00:51:14;;;;;;;9.43;6.90;;;4.30;99.90;;;;;;1895675;75;21217;-85
2022/12/08 00:54:07;;;;;;;8.65;6.15;;;4.20;99.90;;;;;;1861223;77;21183;-85
2022/12/08 00:59:41;;;;;;;8.45;6.25;;;4.30;99.90;;;;;;1954819;72;22337;-85
2022/12/08 01:02:33;;;;;;;8.68;6.80;;;4.20;99.90;;;;;;1906325;75;21534;-84
2022/12/08 01:05:25;;;;;;;9.03;6.53;;;4.20;99.90;;;;;;1909961;73;21082;-86
2022/12/08 01:08:17;;;;;;;8.85;6.70;;;4.30;99.90;;;;;;1914353;74;21561;-86
2022/12/08 01:11:11;;;;;;;9.53;6.50;;;4.30;99.90;;;;;;1915571;74;21093;-85
2022/12/08 01:14:13;;;;;;;8.80;6.22;;;4.20;99.90;;;;;;1918615;74;21083;-84
2022/12/08 01:17:04;;;;;;;9.83;6.75;;;4.20;99.90;;;;;;1927655;74;21139;-85
2022/12/08 01:22:36;;;;;;;9.70;6.90;;;4.20;99.90;;;;;;1950518;72;22210;-85
2022/12/08 01:25:28;;;;;;;7.75;6.33;;;4.20;99.90;;;;;;1887613;74;21194;-85
2022/12/08 01:28:19;;;;;;;8.55;6.40;;;4.30;99.90;;;;;;1905599;75;21108;-85
2022/12/08 01:31:14;;;;;;;9.20;6.10;;;4.30;99.90;;;;;;1886262;75;21094;-85
2022/12/08 01:34:07;;;;;;;9.90;6.60;;;4.30;99.90;;;;;;1886647;75;21173;-85
2022/12/08 01:36:59;;;;;;;8.48;5.92;;;4.20;99.90;;;;;;1903370;75;21153;-85
2022/12/08 01:39:50;;;;;;;9.53;7.08;;;4.10;99.90;;;;;;1909920;75;21090;-85
2022/12/08 01:42:42;;;;;;;9.53;6.70;;;4.20;99.90;;;;;;1905965;75;21168;-85
2022/12/08 01:45:34;;;;;;;8.45;6.47;;;4.20;99.90;;;;;;1906758;75;21129;-85
2022/12/08 01:48:27;;;;;;;8.28;6.50;;;4.30;99.90;;;;;;1892767;75;21098;-84
2022/12/08 01:54:00;;;;;;;9.93;7.25;;;4.20;99.90;;;;;;1948967;72;22258;-85
2022/12/08 01:56:55;;;;;;;9.20;6.85;;;4.10;99.90;;;;;;1921581;74;21090;-85
2022/12/08 01:59:50;;;;;;;8.75;6.50;;;4.00;99.90;;;;;;1930367;74;21131;-85
2022/12/08 02:02:48;;;;;;;8.33;6.15;;;4.10;99.90;;;;;;1914499;74;21177;-85
2022/12/08 02:05:41;;;;;;;9.85;6.92;;;4.10;99.90;;;;;;1918376;74;21180;-85
2022/12/08 02:08:34;;;;;;;9.33;6.05;;;4.10;99.90;;;;;;1904994;74;21599;-86
2022/12/08 02:11:27;;;;;;;9.00;6.17;;;4.10;99.90;;;;;;1912228;74;21091;-85
2022/12/08 02:14:18;;;;;;;7.15;5.42;;;4.10;99.90;;;;;;1912658;74;21137;-85
2022/12/08 02:17:17;;;;;;;8.03;5.90;;;4.00;99.90;;;;;;1905331;74;21561;-84
2022/12/08 02:20:40;;;;;;;9.75;6.65;;;4.10;99.90;;;;;;1911946;74;21083;-85
2022/12/08 02:26:53;;;;;;;8.15;6.08;;;4.00;99.90;;;;;;1954025;72;22252;-85
2022/12/08 02:30:09;;;;;;;8.35;6.05;;;4.00;99.90;;;;;;1865331;74;21110;-85
2022/12/08 02:33:29;;;;;;;10.98;6.65;;;4.00;99.90;;;;;;1903998;75;21138;-85
2022/12/08 02:36:24;;;;;;;7.50;5.47;;;3.90;99.90;;;;;;1887665;75;21125;-85
2022/12/08 02:39:24;;;;;;;7.53;5.58;;;3.90;99.90;;;;;;1890188;75;21114;-86
2022/12/08 02:45:00;;;;;;;8.05;5.70;;;4.00;99.90;;;;;;1940537;72;22221;-83
2022/12/08 02:47:53;;;;;;;8.20;6.25;;;4.00;99.90;;;;;;1905633;75;21103;-85
2022/12/08 02:53:37;;;;;;;8.95;6.28;;;4.00;99.90;;;;;;1951226;72;22246;-85
2022/12/08 02:56:52;;;;;;;8.00;6.12;;;4.00;99.90;;;;;;1855456;76;21182;-85
2022/12/08 02:59:53;;;;;;;8.80;6.15;;;4.00;99.90;;;;;;1851424;77;21160;-85
2022/12/08 03:02:50;;;;;;;9.65;6.12;;;4.00;99.90;;;;;;1860774;77;21401;-85
2022/12/08 03:05:55;;;;;;;8.70;6.07;;;4.10;99.90;;;;;;1870349;77;21582;-84
2022/12/08 03:11:34;;;;;;;7.58;5.87;;;4.10;99.90;;;;;;1948677;72;22209;-86
2022/12/08 03:14:26;;;;;;;7.45;6.08;;;4.00;99.90;;;;;;1919190;73;21774;-84
2022/12/08 03:17:20;;;;;;;8.68;6.15;;;4.00;99.90;;;;;;1904455;75;21106;-85
2022/12/08 03:20:15;;;;;;;7.60;5.78;;;3.90;99.90;;;;;;1911414;74;21106;-85
2022/12/08 03:23:10;;;;;;;8.08;6.00;;;3.90;99.90;;;;;;1904765;74;21106;-85
2022/12/08 03:28:46;;;;;;;7.20;5.58;;;4.00;99.90;;;;;;1966897;72;22189;-85
2022/12/08 03:31:40;;;;;;;8.13;6.12;;;3.90;99.90;;;;;;1918308;74;21122;-84
2022/12/08 03:37:11;;;;;;;8.00;5.97;;;3.90;99.90;;;;;;1944117;72;22338;-85
2022/12/08 03:42:43;;;;;;;7.70;5.65;;;3.90;99.90;;;;;;1938147;72;22226;-85
2022/12/08 03:48:15;;;;;;;7.62;5.62;;;3.80;99.90;;;;;;1931754;72;22699;-85
2022/12/08 03:51:07;;;;;;;7.80;5.45;;;3.80;99.90;;;;;;1889412;75;21193;-85
2022/12/08 03:56:38;;;;;;;7.08;5.67;;;3.80;99.90;;;;;;1951451;72;22251;-85
2022/12/08 03:59:30;;;;;;;6.75;5.50;;;3.80;99.90;;;;;;1946015;73;21566;-85
2022/12/08 04:02:21;;;;;;;6.95;5.20;;;3.80;99.90;;;;;;1933754;73;21094;-85
2022/12/08 04:05:14;;;;;;;6.83;5.10;;;3.80;99.90;;;;;;1949519;73;21059;-86
2022/12/08 04:08:05;;;;;;;6.72;5.35;;;3.80;99.90;;;;;;1936598;73;21095;-86
2022/12/08 04:10:57;;;;;;;7.53;5.17;;;3.80;99.90;;;;;;1934598;73;21130;-85
2022/12/08 04:16:27;;;;;;;7.45;5.92;;;3.80;99.90;;;;;;1935192;72;22278;-84
2022/12/08 04:19:19;;;;;;;8.25;5.08;;;3.90;99.90;;;;;;1895653;75;21070;-86
2022/12/08 04:22:10;;;;;;;6.30;5.12;;;3.80;99.90;;;;;;1893611;75;21093;-85
2022/12/08 04:25:10;;;;;;;7.33;5.30;;;3.80;99.90;;;;;;1892781;75;21100;-85
2022/12/08 04:30:42;;;;;;;8.45;5.30;;;3.80;99.90;;;;;;1928265;72;22265;-85
2022/12/08 04:33:34;;;;;;;6.00;4.90;;;3.70;99.90;;;;;;1912240;75;21059;-85
2022/12/08 04:36:26;;;;;;;7.10;5.28;;;3.80;99.90;;;;;;1884201;75;21121;-85
2022/12/08 04:41:56;;;;;;;8.58;4.70;;;3.60;99.90;;;;;;1946776;72;22174;-85
2022/12/08 04:44:47;;;;;;;6.65;5.05;;;3.60;99.90;;;;;;1914627;74;21107;-85
2022/12/08 04:47:39;;;;;;;9.23;5.37;;;3.60;99.90;;;;;;1911087;74;21098;-87
2022/12/08 04:50:31;;;;;;;6.28;4.78;;;3.70;99.90;;;;;;1928156;74;21110;-85
2022/12/08 04:53:22;;;;;;;7.70;5.42;;;3.70;99.90;;;;;;1917162;74;21094;-85
2022/12/08 04:56:15;;;;;;;6.85;5.20;;;3.60;99.90;;;;;;1910391;74;21103;-85
2022/12/08 04:59:07;;;;;;;5.55;4.50;;;3.60;99.90;;;;;;1888656;75;21103;-85
2022/12/08 05:04:41;;;;;;;6.47;4.62;;;3.60;99.90;;;;;;1945871;72;22183;-86
2022/12/08 05:07:33;;;;;;;6.08;4.83;;;3.60;99.90;;;;;;1896652;75;21084;-86
2022/12/08 05:10:25;;;;;;;6.78;4.95;;;3.50;99.90;;;;;;1872809;75;21091;-86
2022/12/08 05:16:09;;;;;;;5.70;4.53;;;3.40;99.90;;;;;;1945822;72;22232;-85
2022/12/08 05:21:46;;;;;;;7.67;4.92;;;3.50;99.90;;;;;;1963275;72;22286;-85
2022/12/08 05:24:38;;;;;;;7.55;5.00;;;3.50;99.90;;;;;;1935314;73;21161;-85
2022/12/08 05:27:30;;;;;;;6.80;4.87;;;3.50;99.90;;;;;;1880477;76;21183;-85
2022/12/08 05:30:22;;;;;;;6.22;5.00;;;3.50;99.90;;;;;;1927421;73;21124;-85
2022/12/08 05:33:14;;;;;;;6.67;4.67;;;3.40;99.90;;;;;;1919352;73;21128;-85
2022/12/08 05:38:45;;;;;;;7.10;4.90;;;3.30;99.90;;;;;;1964248;72;22702;-86
2022/12/08 05:41:36;;;;;;;5.40;4.55;;;3.30;99.90;;;;;;1922763;73;21102;-85
2022/12/08 05:44:28;;;;;;;6.75;5.05;;;3.30;99.90;;;;;;1942826;73;21094;-84
2022/12/08 05:47:20;;;;;;;6.62;5.22;;;3.30;99.90;;;;;;1929732;73;21078;-84
2022/12/08 05:50:12;;;;;;;6.15;5.05;;;3.30;99.90;;;;;;1929888;73;21102;-84
2022/12/08 05:53:04;;;;;;;6.72;4.92;;;3.20;99.90;;;;;;1947764;73;21058;-85
2022/12/08 05:55:56;;;;;;;6.25;5.05;;;3.20;99.90;;;;;;1932350;73;21154;-85
2022/12/08 06:01:28;;;;;;;8.18;5.55;;;3.20;99.90;;;;;;1943305;72;22247;-86
2022/12/08 06:06:59;;;;;;;7.55;5.33;;;3.20;99.90;;;;;;1950976;72;22319;-86
2022/12/08 06:09:51;;;;;;;7.28;5.40;;;3.10;99.90;;;;;;1877779;75;21168;-85
2022/12/08 06:12:42;;;;;;;7.12;4.75;;;3.10;99.90;;;;;;1888425;75;21143;-85
2022/12/08 06:15:37;;;;;;;6.55;4.87;;;3.10;99.90;;;;;;1894807;75;21088;-85
2022/12/08 06:18:29;;;;;;;6.72;5.22;;;3.10;99.90;;;;;;1885812;75;21213;-85
2022/12/08 06:24:03;;;;;;;6.45;4.95;;;3.00;99.90;;;;;;1926820;72;22168;-85
2022/12/08 06:26:55;;;;;;;7.00;5.60;;;3.00;99.90;;;;;;1911116;75;21073;-86
2022/12/08 06:29:46;;;;;;;6.67;4.95;;;3.00;99.90;;;;;;1917112;75;21235;-85
2022/12/08 06:32:38;;;;;;;8.55;5.80;;;3.00;99.90;;;;;;1914077;75;21105;-86
2022/12/08 06:35:30;;;;;;;8.45;5.60;;;3.00;99.90;;;;;;1916782;75;21113;-85
2022/12/08 06:38:21;;;;;;;7.97;5.40;;;2.90;99.90;;;;;;1932700;74;21168;-86
2022/12/08 06:41:14;;;;;;;6.83;5.47;;;2.90;99.90;;;;;;1894121;74;21103;-86
2022/12/08 06:44:06;;;;;;;9.45;5.45;;;2.80;99.90;;;;;;1889244;74;21244;-85
2022/12/08 06:46:57;;;;;;;8.63;5.67;;;2.70;99.90;;;;;;1913819;75;21163;-86
2022/12/08 06:49:49;;;;;;;6.70;5.67;;;2.70;99.90;;;;;;1906620;75;21218;-85
2022/12/08 06:52:44;;;;;;;7.50;5.22;;;2.70;99.90;;;;;;1895242;75;21210;-85
2022/12/08 06:55:37;;;;;;;9.20;5.60;;;2.60;99.90;;;;;;1921039;74;21134;-85
2022/12/08 06:58:31;;;;;;;7.55;5.50;;;2.60;99.90;;;;;;1904111;75;21183;-86
2022/12/08 07:01:25;;;;;;;9.20;5.80;;;2.60;99.90;;;;;;1915889;75;21592;-86
2022/12/08 07:04:16;;;;;;;7.92;5.33;;;2.50;99.90;;;;;;1918198;74;21090;-86
2022/12/08 07:07:08;;;;;;;8.30;5.78;;;2.50;99.90;;;;;;1918150;74;21092;-85
2022/12/08 07:12:39;;;;;;;6.78;5.45;;;2.60;99.90;;;;;;1929566;72;22116;-86
2022/12/08 07:15:31;;;;;;;6.58;5.53;;;2.50;99.90;;;;;;1839800;77;21146;-86
2022/12/08 07:18:24;;;;;;;8.28;5.70;;;2.50;99.90;;;;;;1841737;77;21648;-86
2022/12/08 07:21:16;;;;;;;8.65;5.40;;;2.60;99.90;;;;;;1896164;74;21114;-86
2022/12/08 07:26:54;;;;;;;8.85;5.30;;;2.50;99.90;;;;;;1949567;72;22190;-86
2022/12/08 07:32:23;;;;;;;9.58;6.37;;;2.50;99.90;;;;;;1939773;72;23128;-85
2022/12/08 07:35:16;;;;;;;8.20;6.05;;;2.50;99.90;;;;;;1895033;75;21159;-85
2022/12/08 07:38:11;;;;;;;8.10;5.62;;;2.40;99.90;;;;;;1906092;75;21102;-85
2022/12/08 07:43:41;;;;;;;7.95;5.37;;;2.40;99.90;;;;;;1941504;72;23274;-85
2022/12/08 07:49:18;;;;;;;11.28;7.33;;;2.40;99.90;;;;;;1926325;72;28185;-85
2022/12/08 07:52:11;;;;;;;10.87;6.53;;;2.60;99.90;;;;;;1896936;74;21063;-84
2022/12/08 07:55:02;;;;;;;7.40;5.70;;;2.60;99.90;;;;;;1900798;75;21102;-85
2022/12/08 07:57:54;;;;;;;9.53;6.05;;;2.60;99.90;;;;;;1906888;75;21124;-85
2022/12/08 08:00:46;;;;;;;8.23;6.15;;;2.60;99.90;;;;;;1909845;75;21102;-84
2022/12/08 08:03:38;;;;;;;10.28;5.80;;;2.60;99.90;;;;;;1889593;75;21195;-85
2022/12/08 08:06:30;;;;;;;8.15;6.00;;;2.50;99.90;;;;;;1886897;75;21109;-85
2022/12/08 08:09:24;;;;;;;7.28;5.37;;;2.50;99.90;;;;;;1893498;74;21751;-85
2022/12/08 08:12:15;;;;;;;8.63;5.80;;;2.50;99.90;;;;;;1891154;74;21083;-85
2022/12/08 08:17:51;;;;;;;6.97;5.17;;;2.50;99.90;;;;;;1938056;72;22279;-85
2022/12/08 08:20:45;;;;;;;8.75;5.40;;;2.50;99.90;;;;;;1888307;75;21117;-84
2022/12/08 08:23:37;;;;;;;7.85;5.70;;;2.50;99.90;;;;;;1898117;75;21179;-85
2022/12/08 08:26:29;;;;;;;10.30;5.53;;;2.60;99.90;;;;;;1902009;75;21094;-85
2022/12/08 08:32:00;;;;;;;7.70;5.65;;;2.80;99.90;;;;;;1945871;72;22192;-84
2022/12/08 08:34:53;;;;;;;8.10;5.83;;;2.80;99.90;;;;;;1914194;74;21099;-84
2022/12/08 08:37:45;;;;;;;7.85;5.47;;;2.80;99.90;;;;;;1903615;75;21062;-84
2022/12/08 08:40:38;;;;;;;7.58;5.50;;;2.80;99.90;;;;;;1901060;74;21160;-85
2022/12/08 08:43:30;;;;;;;10.20;6.20;;;2.80;99.90;;;;;;1906774;74;21054;-84
2022/12/08 08:46:23;;;;;;;7.58;5.28;;;2.80;99.90;;;;;;1906754;74;21096;-84
2022/12/08 08:51:59;;;;;;;8.08;5.97;;;2.90;99.90;;;;;;1929063;72;22186;-85
2022/12/08 08:54:50;;;;;;;8.90;6.42;;;2.90;99.90;;;;;;1884656;75;21103;-84
2022/12/08 08:57:42;;;;;;;9.58;6.12;;;3.00;99.90;;;;;;1883147;75;21114;-85
2022/12/08 09:00:33;;;;;;;9.43;6.30;;;3.00;99.90;;;;;;1889780;75;21160;-85
2022/12/08 09:03:25;;;;;;;9.38;5.40;;;3.00;99.90;;;;;;1879320;75;21118;-85
2022/12/08 09:06:17;;;;;;;8.85;5.85;;;3.10;99.90;;;;;;1899000;75;21172;-84
2022/12/08 09:09:09;;;;;;;8.98;5.72;;;3.10;99.90;;;;;;1881895;75;21222;-85
2022/12/08 09:12:01;;;;;;;8.05;5.72;;;3.10;99.90;;;;;;1896857;75;21091;-85
2022/12/08 09:17:31;;;;;;;8.70;6.00;;;3.10;99.90;;;;;;1963082;72;22194;-84
2022/12/08 09:20:23;;;;;;;10.63;6.22;;;3.20;99.90;;;;;;1910452;75;21704;-84
2022/12/08 09:23:16;;;;;;;9.88;6.28;;;3.20;99.90;;;;;;1916810;75;21321;-86
2022/12/08 09:26:09;;;;;;;9.38;6.55;;;3.20;99.90;;;;;;1907354;75;21098;-84
2022/12/08 09:31:41;;;;;;;10.00;6.30;;;3.30;99.90;;;;;;1942055;72;22174;-85
2022/12/08 09:34:33;;;;;;;10.45;7.28;;;3.40;99.90;;;;;;1913354;75;21106;-85
2022/12/08 09:37:29;;;;;;;10.72;7.92;;;3.40;99.90;;;;;;1883510;75;21054;-85
2022/12/08 09:43:03;;;;;;;11.93;8.55;;;3.60;99.90;;;;;;1935935;72;22170;-86
2022/12/08 09:45:56;;;;;;;10.98;8.00;;;3.60;99.90;;;;;;1886086;75;21071;-84
2022/12/08 09:51:33;;;;;;;12.93;8.90;;;3.70;99.90;;;;;;1941893;72;22280;-85
2022/12/08 09:54:28;;;;;;;14.33;8.95;;;3.90;99.90;;;;;;1900836;74;21124;-85
2022/12/08 09:57:22;;;;;;;11.43;8.30;;;3.90;99.90;;;;;;1903837;74;21107;-86
2022/12/08 10:03:00;;;;;;;15.55;11.30;;;3.90;99.90;;;;;;1946858;72;22259;-85
2022/12/08 10:05:55;;;;;;;12.43;9.08;;;4.00;99.90;;;;;;1902313;75;21135;-84
2022/12/08 10:17:01;;;;;;;13.68;11.33;;;4.10;99.90;;;;;;1927058;72;28086;-86
2022/12/08 10:22:35;;;;;;;12.18;9.40;;;4.20;99.90;;;;;;1941521;72;22309;-85
2022/12/08 10:25:49;;;;;;;13.25;9.15;;;4.20;99.90;;;;;;1906949;75;21123;-85
2022/12/08 10:31:43;;;;;;;13.03;8.78;;;4.30;99.90;;;;;;1929918;72;22264;-85
2022/12/08 10:34:37;;;;;;;16.73;10.28;;;4.40;99.90;;;;;;1902448;75;21570;-86
2022/12/08 10:37:29;;;;;;;12.80;8.83;;;4.60;99.90;;;;;;1872660;75;21167;-85
2022/12/08 10:40:22;;;;;;;15.98;9.43;;;4.60;99.90;;;;;;1884028;75;21118;-85
2022/12/08 10:43:18;;;;;;;12.68;9.20;;;4.70;99.90;;;;;;1877273;75;21608;-85
2022/12/08 10:48:55;;;;;;;12.23;9.63;;;4.90;99.90;;;;;;1929107;72;22122;-86
2022/12/08 10:51:47;;;;;;;14.70;10.15;;;4.90;99.90;;;;;;1912253;75;21597;-85
2022/12/08 10:57:24;;;;;;;13.65;9.25;;;5.00;99.90;;;;;;1917770;72;22205;-85
2022/12/08 11:00:27;;;;;;;14.63;10.13;;;5.20;99.90;;;;;;1898227;75;21047;-85
2022/12/08 11:03:26;;;;;;;13.58;10.38;;;5.30;99.90;;;;;;1862826;76;21853;-85
2022/12/08 11:09:07;;;;;;;13.62;9.78;;;5.20;99.90;;;;;;1928923;72;22618;-85
2022/12/08 11:12:02;;;;;;;18.77;12.18;;;5.30;99.90;;;;;;1889543;75;21091;-85
2022/12/08 11:17:42;;;;;;;15.30;10.93;;;5.40;99.90;;;;;;1949641;72;22142;-84
2022/12/08 11:20:41;;;;;;;16.10;11.93;;;5.50;99.90;;;;;;1932373;73;21051;-85
2022/12/08 11:23:33;;;;;;;14.98;10.63;;;5.60;99.90;;;;;;1917225;75;21152;-84
2022/12/08 11:31:53;;;;;;;17.15;12.15;;;5.50;99.90;;;;;;1921567;72;22392;-85
2022/12/08 11:34:48;;;;;;;14.53;10.60;;;5.60;99.90;;;;;;1889669;75;21160;-85
2022/12/08 11:37:42;;;;;;;15.90;10.28;;;5.70;99.90;;;;;;1851472;76;21239;-86
2022/12/08 11:43:18;;;;;;;16.75;10.63;;;5.80;99.90;;;;;;1920399;72;22263;-85
2022/12/08 11:46:15;;;;;;;15.98;11.68;;;5.90;99.90;;;;;;1837660;77;21215;-85
2022/12/08 11:49:10;;;;;;;16.20;11.03;;;5.90;99.90;;;;;;1894338;75;21081;-84
2022/12/08 11:52:05;;;;;;;16.15;10.30;;;6.00;99.90;;;;;;1838905;76;21179;-84
2022/12/08 11:57:38;;;;;;;14.75;10.78;;;6.10;99.90;;;;;;1947055;72;22292;-85
2022/12/08 12:00:31;;;;;;;17.15;11.40;;;6.20;99.90;;;;;;1916994;74;21510;-85
2022/12/08 12:03:28;;;;;;;15.95;11.20;;;6.30;99.90;;;;;;1882918;75;21103;-84
2022/12/08 12:06:35;;;;;;;16.50;11.40;;;6.30;99.90;;;;;;1898328;75;21102;-85
2022/12/08 12:12:15;;;;;;;14.47;10.88;;;6.00;99.90;;;;;;1965775;72;22123;-85
2022/12/08 12:15:20;;;;;;;16.37;10.88;;;6.10;99.90;;;;;;1919840;73;21110;-85
2022/12/08 12:18:16;;;;;;;16.10;11.80;;;6.10;99.90;;;;;;1916720;75;21165;-84
2022/12/08 12:21:15;;;;;;;13.95;10.88;;;6.10;99.90;;;;;;1927556;73;21071;-84
2022/12/08 12:24:17;;;;;;;15.32;11.33;;;6.20;99.90;;;;;;1917117;75;21051;-85
2022/12/08 12:27:18;;;;;;;16.85;10.98;;;6.40;99.90;;;;;;1916813;75;21236;-84
2022/12/08 12:30:16;;;;;;;15.88;11.38;;;6.50;99.90;;;;;;1925928;73;21165;-84
2022/12/08 12:33:12;;;;;;;16.85;11.45;;;6.40;99.90;;;;;;1890785;75;21109;-84
2022/12/08 12:36:05;;;;;;;17.37;10.80;;;6.20;99.90;;;;;;1916657;75;21167;-85
2022/12/08 12:39:05;;;;;;;16.87;11.22;;;6.20;99.90;;;;;;1917676;73;21108;-84
2022/12/08 12:41:59;;;;;;;17.65;13.28;;;6.30;99.90;;;;;;1916912;75;21090;-85
2022/12/08 12:44:57;;;;;;;15.75;10.75;;;6.40;99.90;;;;;;1924163;73;21318;-85
2022/12/08 12:47:51;;;;;;;22.73;11.40;;;6.50;99.90;;;;;;1928259;73;21106;-85
2022/12/08 12:50:46;;;;;;;14.73;10.55;;;6.60;99.90;;;;;;1920016;73;21125;-85
2022/12/08 12:56:53;;;;;;;16.35;10.85;;;6.70;99.90;;;;;;1949898;72;22224;-85
2022/12/08 13:02:31;;;;;;;14.73;10.28;;;6.60;99.90;;;;;;1935303;72;22166;-85
2022/12/08 13:05:25;;;;;;;13.68;9.93;;;6.60;99.90;;;;;;1893659;75;21103;-85
2022/12/08 13:11:05;;;;;;;13.13;9.80;;;6.60;99.90;;;;;;1936662;72;22165;-85
2022/12/08 13:14:02;;;;;;;15.58;10.23;;;6.50;99.90;;;;;;1908264;74;21156;-85
2022/12/08 13:17:00;;;;;;;14.07;10.45;;;6.50;99.90;;;;;;1901829;75;21102;-85
2022/12/08 13:19:55;;;;;;;13.70;9.38;;;6.50;99.90;;;;;;1903035;75;21156;-85
2022/12/08 13:26:19;;;;;;;13.55;9.65;;;6.40;99.90;;;;;;1953785;72;22213;-85
2022/12/08 13:29:36;;;;;;;15.10;10.58;;;6.40;99.90;;;;;;1900497;75;21506;-84
2022/12/08 13:35:45;;;;;;;15.13;10.65;;;6.20;99.90;;;;;;1960347;72;22167;-85
2022/12/08 13:38:40;;;;;;;12.33;9.20;;;6.10;99.90;;;;;;1916499;75;21200;-85
2022/12/08 13:41:43;;;;;;;16.20;9.80;;;6.20;99.90;;;;;;1923496;73;21130;-85
2022/12/08 13:44:39;;;;;;;15.20;9.70;;;6.20;99.90;;;;;;1924560;73;21154;-85
2022/12/08 13:47:35;;;;;;;8.63;6.40;;;6.10;99.90;;;;;;1916874;75;21110;-85
2022/12/08 13:50:36;;;;;;;12.35;9.33;;;6.10;99.90;;;;;;1935205;73;21084;-85
2022/12/08 13:53:32;;;;;;;14.03;9.83;;;6.20;99.90;;;;;;1916894;75;21683;-85
2022/12/08 13:56:27;;;;;;;12.73;9.55;;;6.20;99.90;;;;;;1916407;75;21066;-86
2022/12/08 13:59:29;;;;;;;13.20;9.33;;;6.20;99.90;;;;;;1938827;73;21122;-85
2022/12/08 14:02:25;;;;;;;14.40;8.85;;;6.30;99.90;;;;;;1916292;75;21142;-85
2022/12/08 14:05:18;;;;;;;12.60;8.60;;;6.30;99.90;;;;;;1937837;73;21102;-85
2022/12/08 14:08:20;;;;;;;12.37;7.65;;;6.30;99.90;;;;;;1932498;73;21090;-84
2022/12/08 14:11:32;;;;;;;10.68;7.55;;;6.40;99.90;;;;;;1916539;75;21156;-85
2022/12/08 14:14:14;;;;;;;11.38;7.78;;;6.30;99.90;;;;;;1916454;75;21124;-85
2022/12/08 14:17:12;;;;;;;8.08;6.53;;;6.30;99.90;;;;;;1916725;75;21121;-86
2022/12/08 14:20:12;;;;;;;11.00;6.50;;;6.30;99.90;;;;;;1916657;75;21054;-84
2022/12/08 14:23:07;;;;;;;10.53;7.22;;;6.30;99.90;;;;;;1916303;75;21107;-85
2022/12/08 14:25:59;;;;;;;10.55;7.22;;;6.30;99.90;;;;;;1916489;74;21175;-85
2022/12/08 14:28:51;;;;;;;11.73;7.72;;;6.30;99.90;;;;;;1939221;73;21105;-86
2022/12/08 14:31:44;;;;;;;10.65;7.62;;;6.20;99.90;;;;;;1916688;75;21167;-85
2022/12/08 14:41:26;;;;;;;11.83;7.40;;;6.20;99.90;;;;;;1954605;72;22346;-85
2022/12/08 14:47:32;;;;;;;13.78;8.90;;;6.10;99.90;;;;;;1953464;72;22255;-85
2022/12/08 14:50:41;;;;;;;15.15;9.25;;;6.10;99.90;;;;;;1898955;75;21317;-86
2022/12/08 14:53:39;;;;;;;13.75;9.25;;;6.10;99.90;;;;;;1898349;75;21074;-84
2022/12/08 14:56:43;;;;;;;12.15;8.98;;;6.10;99.90;;;;;;1894615;75;21055;-84
2022/12/08 14:59:38;;;;;;;13.53;10.13;;;6.10;99.90;;;;;;1894621;75;21184;-86
2022/12/08 15:02:32;;;;;;;18.35;9.83;;;6.00;99.90;;;;;;1894724;75;21051;-86
2022/12/08 15:05:25;;;;;;;15.75;10.03;;;5.90;99.90;;;;;;1895215;75;21138;-85
2022/12/08 15:11:30;;;;;;;13.38;9.53;;;5.90;99.90;;;;;;1934313;72;22189;-85
2022/12/08 15:14:33;;;;;;;14.70;9.65;;;5.90;99.90;;;;;;1926355;73;21459;-85
2022/12/08 15:17:32;;;;;;;14.03;10.48;;;5.90;99.90;;;;;;1916180;73;21134;-86
2022/12/08 15:20:37;;;;;;;15.50;9.95;;;5.90;99.90;;;;;;1936725;73;21163;-85
2022/12/08 15:23:44;;;;;;;13.58;9.50;;;5.90;99.90;;;;;;1914385;75;21171;-85
2022/12/08 15:26:41;;;;;;;13.53;9.58;;;5.90;99.90;;;;;;1936900;73;21125;-85
2022/12/08 15:29:33;;;;;;;13.48;9.60;;;5.90;99.90;;;;;;1914272;75;21098;-85
2022/12/08 15:32:25;;;;;;;14.83;9.75;;;5.80;99.90;;;;;;1929430;73;21093;-85
2022/12/08 15:35:50;;;;;;;14.55;10.15;;;5.80;99.90;;;;;;1924712;73;21089;-85
2022/12/08 15:38:49;;;;;;;16.52;9.88;;;5.80;99.90;;;;;;1914157;75;21113;-86
2022/12/08 15:41:41;;;;;;;14.73;10.60;;;5.70;99.90;;;;;;1914171;75;21086;-84
2022/12/08 15:44:33;;;;;;;16.05;10.48;;;5.70;99.90;;;;;;1914454;75;21148;-85
2022/12/08 15:47:27;;;;;;;14.53;9.75;;;5.70;99.90;;;;;;1914109;75;21116;-86
2022/12/08 15:50:23;;;;;;;16.30;10.58;;;5.70;99.90;;;;;;1913710;75;21150;-86
2022/12/08 15:53:16;;;;;;;18.00;11.15;;;5.60;99.90;;;;;;1914252;75;21122;-85
2022/12/08 15:56:09;;;;;;;14.45;10.23;;;5.60;99.90;;;;;;1914370;75;21645;-87
2022/12/08 15:59:02;;;;;;;13.45;10.43;;;5.60;99.90;;;;;;1914405;75;21106;-85
2022/12/08 16:01:54;;;;;;;20.12;11.60;;;5.50;99.90;;;;;;1914546;75;21097;-86
2022/12/08 16:04:47;;;;;;;15.88;10.48;;;5.50;99.90;;;;;;1914151;75;21093;-85
2022/12/08 16:07:41;;;;;;;17.10;11.90;;;5.50;99.90;;;;;;1913998;75;21101;-85
2022/12/08 16:10:33;;;;;;;18.25;12.37;;;5.50;99.90;;;;;;1908542;74;21250;-85
2022/12/08 16:16:39;;;;;;;20.50;13.72;;;5.50;99.90;;;;;;1924256;74;21094;-85
2022/12/08 16:19:31;;;;;;;21.95;13.80;;;5.50;99.90;;;;;;1922846;74;21102;-85
2022/12/08 16:22:25;;;;;;;20.70;13.10;;;5.50;99.90;;;;;;1917392;73;21086;-85
2022/12/08 16:25:18;;;;;;;16.50;11.63;;;5.50;99.90;;;;;;1917761;73;21202;-85
2022/12/08 16:30:51;;;;;;;17.25;12.10;;;5.40;99.90;;;;;;1954470;72;22334;-85
2022/12/08 16:33:43;;;;;;;25.85;14.30;;;5.40;99.90;;;;;;1894877;74;21102;-85
2022/12/08 16:36:38;;;;;;;19.85;13.45;;;5.40;99.90;;;;;;1894751;75;21139;-85
2022/12/08 16:39:30;;;;;;;17.37;12.73;;;5.40;99.90;;;;;;1894682;75;21099;-85
2022/12/08 16:42:42;;;;;;;21.17;12.23;;;5.40;99.90;;;;;;1899170;75;21312;-86
2022/12/08 16:45:36;;;;;;;18.48;12.40;;;5.50;99.90;;;;;;1903354;75;21104;-84
2022/12/08 16:48:29;;;;;;;15.40;11.90;;;5.50;99.90;;;;;;1897708;75;21167;-85
2022/12/08 16:51:21;;;;;;;17.15;12.18;;;5.50;99.90;;;;;;1886426;75;21090;-85
2022/12/08 16:54:14;;;;;;;18.05;11.85;;;5.50;99.90;;;;;;1906548;75;21183;-85
2022/12/08 16:57:07;;;;;;;18.75;12.10;;;5.40;99.90;;;;;;1884052;76;21128;-84
2022/12/08 16:59:59;;;;;;;17.30;12.68;;;5.40;99.90;;;;;;1899070;75;21106;-86
2022/12/08 17:02:52;;;;;;;17.57;11.68;;;5.40;99.90;;;;;;1894853;75;21062;-86
2022/12/08 17:05:45;;;;;;;18.70;11.57;;;5.40;99.90;;;;;;1894682;75;21099;-85
2022/12/08 17:08:36;;;;;;;16.97;12.23;;;5.40;99.90;;;;;;1916259;75;21059;-85
2022/12/08 17:11:31;;;;;;;17.52;11.65;;;5.50;99.90;;;;;;1899932;75;21201;-85
2022/12/08 17:14:21;;;;;;;20.23;12.20;;;5.50;99.90;;;;;;1895257;75;21051;-85
2022/12/08 17:17:13;;;;;;;20.77;12.68;;;5.60;99.90;;;;;;1889312;75;21114;-85
2022/12/08 17:20:07;;;;;;;21.40;13.53;;;5.60;99.90;;;;;;1906720;75;21290;-85
2022/12/08 17:22:59;;;;;;;20.65;13.85;;;5.60;99.90;;;;;;1902056;75;21098;-85
2022/12/08 17:26:00;;;;;;;17.85;12.70;;;5.60;99.90;;;;;;1896295;75;21136;-85
2022/12/08 17:28:52;;;;;;;17.98;12.68;;;5.50;99.90;;;;;;1907655;75;21055;-85
2022/12/08 17:31:45;;;;;;;19.30;12.35;;;5.60;99.90;;;;;;1925574;74;21125;-85
2022/12/08 17:34:36;;;;;;;24.37;15.48;;;5.50;99.90;;;;;;1911472;74;21172;-85
2022/12/08 17:37:28;;;;;;;20.43;13.78;;;5.50;99.90;;;;;;1915353;74;21334;-85
2022/12/08 17:43:02;;;;;;;21.12;13.05;;;5.60;99.90;;;;;;1957065;72;22127;-85
2022/12/08 17:45:54;;;;;;;20.92;13.75;;;5.60;99.90;;;;;;1899302;74;21656;-85
2022/12/08 17:48:47;;;;;;;19.20;13.65;;;5.60;99.90;;;;;;1899675;75;21058;-85
2022/12/08 17:51:48;;;;;;;19.75;12.35;;;5.60;99.90;;;;;;1894791;75;21120;-86
2022/12/08 17:54:42;;;;;;;23.77;13.13;;;5.60;99.90;;;;;;1894861;75;21166;-86
2022/12/08 17:57:36;;;;;;;19.17;12.45;;;5.70;99.90;;;;;;1917142;75;21138;-85
2022/12/08 18:00:45;;;;;;;20.90;13.80;;;5.70;99.90;;;;;;1897919;75;21086;-85
2022/12/08 18:03:43;;;;;;;21.20;13.15;;;5.70;99.90;;;;;;1902998;75;21055;-87
2022/12/08 18:06:35;;;;;;;18.73;11.70;;;5.70;99.90;;;;;;1898007;75;21110;-85
2022/12/08 18:09:28;;;;;;;18.15;12.75;;;5.60;99.90;;;;;;1894723;75;21111;-86